Time;durP1;ratioP1;P1;durP2;ratioP2;P2;SDS_P1;SDS_P2;PMS_P1;PMS_P2;Temp;Humidity;BMP_temperature;BMP_pressure;BME280_temperature;BME280_humidity;BME280_pressure;Samples;Min_cycle;Max_cycle;Signal;HPM_P1;HPM_P2
2021/10/31 00:01:28;;;;;;;9.75;7.85;;;12.00;99.90;;;13.07;100.00;99614.94;4997973;28;20037;-79
2021/10/31 00:03:54;;;;;;;10.48;8.35;;;11.90;99.90;;;13.00;100.00;99614.13;4998600;28;20401;-80
2021/10/31 00:06:21;;;;;;;9.05;7.63;;;12.00;99.90;;;13.00;100.00;99619.75;5002179;28;20113;-82
2021/10/31 00:08:48;;;;;;;10.48;8.18;;;12.00;99.90;;;13.05;100.00;99627.75;4991182;28;20026;-81
2021/10/31 00:11:17;;;;;;;11.32;8.00;;;12.00;99.90;;;12.99;100.00;99624.53;4979682;28;20062;-81
2021/10/31 00:13:44;;;;;;;11.73;8.63;;;12.00;99.90;;;13.03;100.00;99619.75;4978496;28;20406;-81
2021/10/31 00:16:10;;;;;;;11.07;8.32;;;11.90;99.90;;;13.07;100.00;99628.13;4978351;28;20031;-79
2021/10/31 00:18:36;;;;;;;9.82;7.45;;;11.90;99.90;;;13.08;100.00;99632.56;4979325;28;20402;-82
2021/10/31 00:21:02;;;;;;;13.48;8.98;;;11.90;99.90;;;13.01;100.00;99641.75;4977196;28;20058;-79
2021/10/31 00:23:28;;;;;;;13.10;9.15;;;11.90;99.90;;;12.97;100.00;99643.75;4979227;28;20030;-79
2021/10/31 00:25:54;;;;;;;11.85;8.85;;;11.90;99.90;;;13.04;100.00;99643.75;4994389;28;20026;-81
2021/10/31 00:28:20;;;;;;;11.48;9.43;;;11.90;99.90;;;13.08;100.00;99650.22;4978054;28;20023;-82
2021/10/31 00:30:46;;;;;;;12.88;8.73;;;11.90;99.90;;;13.08;100.00;99644.59;4980451;28;20039;-81
2021/10/31 00:33:13;;;;;;;13.38;9.15;;;12.00;99.90;;;13.07;100.00;99642.16;4978644;28;20478;-81
2021/10/31 00:35:39;;;;;;;11.02;8.32;;;12.00;99.90;;;13.06;100.00;99638.56;4979488;28;20081;-80
2021/10/31 00:38:06;;;;;;;10.93;8.80;;;12.00;99.90;;;13.09;100.00;99646.22;4977840;28;20149;-81
2021/10/31 00:40:33;;;;;;;11.38;8.98;;;12.00;99.90;;;13.02;100.00;99646.16;4979733;28;20038;-82
2021/10/31 00:42:59;;;;;;;13.35;8.95;;;12.00;99.90;;;13.00;100.00;99642.16;4978039;28;20450;-81
2021/10/31 00:45:26;;;;;;;10.10;9.00;;;12.00;99.90;;;13.03;100.00;99644.16;4980000;28;20038;-81
2021/10/31 00:47:53;;;;;;;14.18;8.77;;;11.90;99.90;;;13.03;100.00;99636.56;4980851;28;20542;-81
2021/10/31 00:50:21;;;;;;;9.55;8.10;;;11.90;99.90;;;13.00;100.00;99645.75;4979787;28;20030;-79
2021/10/31 00:52:48;;;;;;;10.73;9.02;;;11.90;99.90;;;12.92;100.00;99646.16;4979916;28;20031;-79
2021/10/31 00:55:16;;;;;;;11.05;8.43;;;11.80;99.90;;;12.85;100.00;99641.31;4979409;28;20090;-82
2021/10/31 00:57:42;;;;;;;14.05;8.95;;;11.80;99.90;;;12.83;100.00;99640.94;4977956;28;20051;-80
2021/10/31 01:00:13;;;;;;;13.55;8.85;;;11.70;99.90;;;12.79;100.00;99645.72;4994285;28;20483;-83
2021/10/31 01:02:40;;;;;;;15.85;9.25;;;11.70;99.90;;;12.71;100.00;99649.72;4980401;28;20498;-83
2021/10/31 01:05:13;;;;;;;11.13;8.73;;;11.70;99.90;;;12.68;100.00;99650.50;4963120;28;20030;-82
2021/10/31 01:08:34;;;;;;;10.13;8.02;;;11.60;99.90;;;12.57;100.00;99646.88;4980157;28;20034;-83
2021/10/31 01:11:46;;;;;;;11.18;8.38;;;11.50;99.90;;;12.55;100.00;99641.66;4962342;28;20035;-81
2021/10/31 01:14:39;;;;;;;11.98;8.77;;;11.40;99.90;;;12.52;100.00;99655.66;4958724;29;20030;-83
2021/10/31 01:18:08;;;;;;;12.55;8.70;;;11.40;99.90;;;12.49;100.00;99653.66;4961541;28;20035;-80
2021/10/31 01:21:42;;;;;;;12.48;8.57;;;11.40;99.90;;;12.38;100.00;99653.59;4944780;29;20035;-81
2021/10/31 01:24:52;;;;;;;12.18;8.90;;;11.30;99.90;;;12.36;100.00;99646.81;4974600;28;20062;-81
2021/10/31 01:27:33;;;;;;;15.05;7.93;;;11.20;99.90;;;12.30;100.00;99656.75;4959025;28;20035;-81
2021/10/31 01:30:33;;;;;;;12.88;9.32;;;11.20;99.90;;;12.22;100.00;99652.34;4973634;28;20023;-79
2021/10/31 01:33:54;;;;;;;14.38;9.20;;;11.10;99.90;;;12.27;100.00;99660.34;4977399;28;20031;-79
2021/10/31 01:37:03;;;;;;;12.98;9.02;;;11.10;99.90;;;12.15;100.00;99653.09;4987441;28;20031;-82
2021/10/31 01:39:46;;;;;;;14.52;9.00;;;11.10;99.90;;;12.12;100.00;99659.50;4970925;28;20044;-80
2021/10/31 01:42:28;;;;;;;12.50;8.90;;;11.10;99.90;;;12.14;100.00;99659.88;4972093;28;20035;-80
2021/10/31 01:45:14;;;;;;;11.55;8.32;;;11.10;99.90;;;12.13;100.00;99656.31;4971240;29;20023;-80
2021/10/31 01:47:57;;;;;;;12.27;8.43;;;11.00;99.90;;;12.09;100.00;99647.09;4970361;28;20038;-81
2021/10/31 01:50:40;;;;;;;15.07;9.48;;;11.00;99.90;;;12.09;100.00;99647.09;4970766;28;20027;-80
2021/10/31 01:53:57;;;;;;;10.90;8.30;;;11.00;99.90;;;12.11;100.00;99653.09;4970931;28;20050;-80
2021/10/31 01:56:28;;;;;;;16.60;8.75;;;11.00;99.90;;;12.02;100.00;99663.84;4968213;28;20078;-79
2021/10/31 01:59:31;;;;;;;12.90;8.57;;;10.90;99.90;;;11.98;100.00;99665.00;4968561;28;20042;-80
2021/10/31 02:02:02;;;;;;;10.93;8.98;;;10.90;99.90;;;12.03;100.00;99657.06;4960548;28;20566;-80
2021/10/31 02:04:34;;;;;;;13.73;8.90;;;10.90;99.90;;;12.02;100.00;99674.22;4967314;29;20091;-80
2021/10/31 02:07:03;;;;;;;15.77;9.13;;;10.90;99.90;;;12.02;100.00;99680.63;4952805;28;20055;-81
2021/10/31 02:09:35;;;;;;;13.65;9.23;;;10.90;99.90;;;12.02;100.00;99677.03;4977550;28;20050;-80
2021/10/31 02:12:04;;;;;;;13.38;8.57;;;10.90;99.90;;;12.04;100.00;99677.44;4973832;28;20050;-81
2021/10/31 02:14:35;;;;;;;13.77;8.35;;;10.90;99.90;;;11.97;100.00;99677.41;4942046;29;20062;-81
2021/10/31 02:17:02;;;;;;;14.15;8.60;;;10.80;99.90;;;11.90;100.00;99683.75;4957466;28;20134;-82
2021/10/31 02:19:41;;;;;;;15.40;8.05;;;10.80;99.90;;;11.84;100.00;99676.94;4968145;28;20087;-79
2021/10/31 02:22:23;;;;;;;12.55;8.23;;;10.70;99.90;;;11.75;100.00;99693.22;4963515;28;20027;-79
2021/10/31 02:24:49;;;;;;;10.57;8.07;;;10.60;99.90;;;11.71;100.00;99695.22;4961619;29;20078;-81
2021/10/31 02:27:22;;;;;;;11.80;8.98;;;10.50;99.90;;;11.67;100.00;99691.56;4976949;28;20038;-81
2021/10/31 02:29:59;;;;;;;13.60;9.30;;;10.50;99.90;;;11.64;100.00;99695.13;4943654;29;20035;-83
2021/10/31 02:32:29;;;;;;;12.45;9.15;;;10.50;99.90;;;11.63;100.00;99705.50;4964093;28;20106;-81
2021/10/31 02:34:57;;;;;;;12.88;9.52;;;10.50;99.90;;;11.67;100.00;99701.94;4963254;29;20032;-80
2021/10/31 02:37:25;;;;;;;14.52;10.38;;;10.50;99.90;;;11.63;100.00;99704.72;4961890;28;20063;-82
2021/10/31 02:39:52;;;;;;;13.25;9.52;;;10.50;99.90;;;11.62;100.00;99709.50;4984086;23;20129;-82
2021/10/31 02:42:19;;;;;;;11.35;8.82;;;10.40;99.90;;;11.56;100.00;99707.44;4974449;28;20261;-83
2021/10/31 02:44:45;;;;;;;12.60;9.63;;;10.40;99.90;;;11.50;100.00;99707.00;4974855;28;20033;-84
2021/10/31 02:47:26;;;;;;;15.82;10.13;;;10.30;99.90;;;11.48;100.00;99709.41;4975971;28;20027;-83
2021/10/31 02:49:55;;;;;;;13.90;10.18;;;10.30;99.90;;;11.46;100.00;99702.59;4960017;28;20034;-84
2021/10/31 02:52:33;;;;;;;17.63;11.85;;;10.30;99.90;;;11.44;100.00;99699.34;4975979;28;20357;-84
2021/10/31 02:55:42;;;;;;;13.93;10.05;;;10.30;99.90;;;11.43;100.00;99703.38;4975980;28;20046;-82
2021/10/31 02:58:33;;;;;;;15.05;10.98;;;10.30;99.90;;;11.34;100.00;99698.06;4974700;28;20494;-84
2021/10/31 03:01:05;;;;;;;13.88;9.43;;;10.20;99.90;;;11.30;100.00;99690.88;4976636;28;20050;-83
2021/10/31 03:03:34;;;;;;;13.70;10.23;;;10.20;99.90;;;11.31;100.00;99696.06;4979049;28;20049;-84
2021/10/31 03:06:03;;;;;;;18.83;12.43;;;10.20;99.90;;;11.28;100.00;99698.81;4962154;28;20042;-82
2021/10/31 03:08:33;;;;;;;17.90;11.57;;;10.20;99.90;;;11.31;100.00;99698.03;4978615;28;20031;-84
2021/10/31 03:11:08;;;;;;;19.70;12.63;;;10.20;99.90;;;11.28;100.00;99702.41;4978217;28;20034;-84
2021/10/31 03:13:37;;;;;;;16.60;11.85;;;10.20;99.90;;;11.25;100.00;99702.38;4978929;28;20088;-81
2021/10/31 03:16:09;;;;;;;21.50;12.57;;;10.20;99.90;;;11.32;100.00;99702.47;4961809;28;20109;-84
2021/10/31 03:18:36;;;;;;;19.23;12.43;;;10.20;99.90;;;11.39;100.00;99696.94;4978282;28;20034;-83
2021/10/31 03:21:04;;;;;;;21.17;13.32;;;10.20;99.90;;;11.33;100.00;99704.06;4979010;28;20529;-83
2021/10/31 03:23:30;;;;;;;22.02;13.73;;;10.30;99.90;;;11.34;100.00;99711.25;4978976;28;20118;-84
2021/10/31 03:25:56;;;;;;;19.48;13.13;;;10.30;99.90;;;11.33;100.00;99702.09;4978521;28;20170;-82
2021/10/31 03:28:22;;;;;;;20.80;13.23;;;10.30;99.90;;;11.38;100.00;99701.72;4977980;28;20058;-81
2021/10/31 03:30:49;;;;;;;24.00;15.70;;;10.30;99.90;;;11.40;100.00;99709.69;4994874;28;20031;-84
2021/10/31 03:33:16;;;;;;;24.48;13.73;;;10.30;99.90;;;11.46;100.00;99705.38;4979401;28;20053;-82
2021/10/31 03:35:42;;;;;;;26.15;14.27;;;10.30;99.90;;;11.40;100.00;99696.53;4978142;28;20054;-84
2021/10/31 03:38:09;;;;;;;21.35;14.10;;;10.30;99.90;;;11.42;100.00;99693.34;4994939;28;20062;-84
2021/10/31 03:40:35;;;;;;;22.13;14.65;;;10.40;99.90;;;11.39;100.00;99697.75;4977683;28;20053;-82
2021/10/31 03:43:01;;;;;;;27.70;15.13;;;10.40;99.90;;;11.42;100.00;99690.56;4980231;28;20105;-82
2021/10/31 03:45:27;;;;;;;23.35;14.95;;;10.40;99.90;;;11.44;100.00;99682.59;4979121;28;20033;-83
2021/10/31 03:47:53;;;;;;;29.50;14.65;;;10.40;99.90;;;11.43;100.00;99684.56;4978019;28;20034;-83
2021/10/31 03:50:21;;;;;;;24.13;14.50;;;10.40;99.90;;;11.44;100.00;99685.38;4979334;28;20479;-83
2021/10/31 03:52:50;;;;;;;23.08;15.05;;;10.40;99.90;;;11.44;100.00;99672.22;4979836;28;20054;-83
2021/10/31 03:55:18;;;;;;;22.35;15.05;;;10.50;99.90;;;11.49;100.00;99674.63;4994765;28;20457;-84
2021/10/31 03:57:44;;;;;;;22.05;13.93;;;10.50;99.90;;;11.47;100.00;99670.63;4978887;28;20030;-82
2021/10/31 04:00:14;;;;;;;23.15;14.20;;;10.40;99.90;;;11.49;100.00;99671.06;4978577;28;20058;-84
2021/10/31 04:02:41;;;;;;;21.85;14.15;;;10.50;99.90;;;11.51;100.00;99685.44;4978492;28;20031;-83
2021/10/31 04:05:11;;;;;;;18.58;12.82;;;10.50;99.90;;;11.55;100.00;99675.91;4995753;28;20109;-83
2021/10/31 04:07:37;;;;;;;19.58;12.55;;;10.50;99.90;;;11.55;100.00;99680.69;4978305;28;20124;-84
2021/10/31 04:10:06;;;;;;;21.60;13.25;;;10.50;99.90;;;11.55;100.00;99681.50;4959658;28;20027;-83
2021/10/31 04:12:34;;;;;;;21.30;12.95;;;10.50;99.90;;;11.54;100.00;99682.66;4967458;28;20047;-80
2021/10/31 04:15:00;;;;;;;24.23;13.30;;;10.50;99.90;;;11.59;100.00;99689.91;4969303;29;20402;-81
2021/10/31 04:17:25;;;;;;;19.70;12.60;;;10.50;99.90;;;11.59;100.00;99682.31;4960996;28;20028;-81
2021/10/31 04:19:53;;;;;;;20.08;13.32;;;10.50;99.90;;;11.54;100.00;99690.25;4960332;28;20034;-82
2021/10/31 04:22:19;;;;;;;23.05;13.45;;;10.50;99.90;;;11.88;100.00;99685.34;4959064;28;20031;-82
2021/10/31 04:24:44;;;;;;;18.42;12.00;;;10.40;99.90;;;11.97;100.00;99685.81;4959278;28;20090;-84
2021/10/31 04:27:10;;;;;;;19.48;12.20;;;10.40;99.90;;;11.55;100.00;99675.91;4960053;28;20077;-81
2021/10/31 04:29:36;;;;;;;20.50;13.07;;;10.40;99.90;;;11.50;100.00;99681.03;4958524;28;20454;-84
2021/10/31 04:32:03;;;;;;;21.85;13.05;;;10.40;99.90;;;11.46;100.00;99685.81;4958607;28;20042;-83
2021/10/31 04:34:29;;;;;;;20.58;12.80;;;10.40;99.90;;;11.40;100.00;99681.75;4958791;28;20031;-85
2021/10/31 04:36:56;;;;;;;20.08;13.50;;;10.30;99.90;;;11.33;100.00;99681.72;4959962;28;20590;-84
2021/10/31 04:39:22;;;;;;;20.70;12.40;;;10.30;99.90;;;11.24;100.00;99673.63;4960435;28;20114;-82
2021/10/31 04:41:48;;;;;;;19.30;12.45;;;10.20;99.90;;;11.30;100.00;99679.69;4958473;28;20039;-84
2021/10/31 04:44:16;;;;;;;19.33;12.18;;;10.20;99.90;;;11.31;100.00;99675.69;4958647;28;20031;-83
2021/10/31 04:46:42;;;;;;;19.48;13.50;;;10.30;99.90;;;11.31;100.00;99679.28;4958094;28;20020;-83
2021/10/31 04:49:09;;;;;;;21.83;12.50;;;10.30;99.90;;;11.38;100.00;99672.94;4942646;29;20039;-85
2021/10/31 04:51:35;;;;;;;20.33;13.10;;;10.30;99.90;;;11.39;100.00;99677.34;4927668;29;20051;-83
2021/10/31 04:54:02;;;;;;;20.23;12.20;;;10.30;99.90;;;11.45;100.00;99673.00;4942488;29;20118;-82
2021/10/31 04:56:28;;;;;;;25.23;12.75;;;10.30;99.90;;;11.45;100.00;99673.00;4960823;29;20031;-83
2021/10/31 04:58:54;;;;;;;19.17;11.50;;;10.40;99.90;;;11.42;100.00;99668.19;4959773;28;20253;-83
2021/10/31 05:01:21;;;;;;;23.15;13.80;;;10.40;99.90;;;11.41;100.00;99666.59;4959081;28;20074;-81
2021/10/31 05:03:47;;;;;;;19.88;11.90;;;10.40;99.90;;;11.48;100.00;99661.84;4942965;29;20098;-83
2021/10/31 05:06:13;;;;;;;21.17;12.18;;;10.40;99.90;;;11.45;100.00;99659.03;4943115;29;20031;-84
2021/10/31 05:08:40;;;;;;;20.23;11.68;;;10.40;99.90;;;11.42;100.00;99655.03;4968296;28;20027;-84
2021/10/31 05:11:07;;;;;;;19.95;11.35;;;10.40;99.90;;;11.43;100.00;99658.63;4978557;28;20047;-81
2021/10/31 05:13:33;;;;;;;20.50;11.75;;;10.40;99.90;;;11.45;100.00;99648.66;4978856;28;20346;-84
2021/10/31 05:15:59;;;;;;;18.70;11.07;;;10.40;99.90;;;11.37;100.00;99651.75;4978749;28;20430;-83
2021/10/31 05:18:25;;;;;;;20.88;10.45;;;10.40;99.90;;;11.38;100.00;99647.78;4978243;28;20312;-84
2021/10/31 05:20:51;;;;;;;17.02;11.95;;;10.30;99.90;;;11.38;100.00;99656.97;4976945;28;20379;-83
2021/10/31 05:23:18;;;;;;;22.95;11.55;;;10.40;99.90;;;11.41;100.00;99649.81;4975991;28;20023;-80
2021/10/31 05:25:44;;;;;;;20.98;11.75;;;10.30;99.90;;;11.34;100.00;99642.16;4999054;28;20023;-83
2021/10/31 05:28:10;;;;;;;21.45;12.13;;;10.30;99.90;;;11.36;100.00;99639.81;4989651;28;20042;-81
2021/10/31 05:30:36;;;;;;;19.92;11.82;;;10.40;99.90;;;11.34;100.00;99639.38;4991223;28;20042;-85
2021/10/31 05:33:02;;;;;;;20.50;11.07;;;10.30;99.90;;;11.30;100.00;99632.94;4982069;28;20034;-82
2021/10/31 05:35:28;;;;;;;19.48;11.43;;;10.20;99.90;;;11.29;100.00;99641.72;4978133;28;20033;-81
2021/10/31 05:37:58;;;;;;;26.85;12.15;;;10.20;99.90;;;11.25;100.00;99632.50;4980138;28;20402;-85
2021/10/31 05:40:27;;;;;;;20.55;10.30;;;10.20;99.90;;;11.27;100.00;99630.16;4980834;28;20126;-85
2021/10/31 05:42:54;;;;;;;20.92;11.50;;;10.20;99.90;;;11.24;100.00;99639.31;4964324;28;20042;-82
2021/10/31 05:45:22;;;;;;;19.77;11.07;;;10.20;99.90;;;11.25;100.00;99638.91;4962141;28;20486;-85
2021/10/31 05:47:51;;;;;;;19.13;11.10;;;10.20;99.90;;;11.24;100.00;99633.72;4978839;28;20099;-87
2021/10/31 05:50:19;;;;;;;19.48;10.77;;;10.20;99.90;;;11.21;100.00;99631.66;4979232;28;20054;-84
2021/10/31 05:52:46;;;;;;;23.60;12.65;;;10.20;99.90;;;11.19;100.00;99639.66;4980095;28;20110;-83
2021/10/31 05:55:17;;;;;;;21.38;12.52;;;10.20;99.90;;;11.20;100.00;99646.84;4978712;28;20043;-83
2021/10/31 05:57:44;;;;;;;21.65;12.32;;;10.20;99.90;;;11.20;100.00;99642.06;4963729;28;20066;-82
2021/10/31 06:00:16;;;;;;;20.10;12.43;;;10.20;99.90;;;11.08;100.00;99637.56;4978826;28;20062;-84
2021/10/31 06:02:44;;;;;;;23.98;14.02;;;10.10;99.90;;;11.11;100.00;99634.00;4979304;28;20039;-86
2021/10/31 06:05:12;;;;;;;24.98;13.68;;;10.10;99.90;;;11.09;100.00;99633.59;4963819;28;20039;-83
2021/10/31 06:07:41;;;;;;;22.15;13.30;;;10.10;99.90;;;11.11;100.00;99633.19;4979337;28;20038;-86
2021/10/31 06:10:11;;;;;;;21.10;13.05;;;10.10;99.90;;;11.10;100.00;99635.19;4981570;28;20045;-83
2021/10/31 06:12:44;;;;;;;19.20;12.32;;;10.00;99.90;;;11.09;100.00;99625.19;4980861;28;20054;-84
2021/10/31 06:15:11;;;;;;;20.95;12.10;;;10.00;99.90;;;10.98;100.00;99629.88;4980675;28;20073;-83
2021/10/31 06:17:40;;;;;;;24.20;13.63;;;9.90;99.90;;;10.91;100.00;99624.25;4963603;28;20095;-80
2021/10/31 06:20:11;;;;;;;23.70;13.00;;;9.80;99.90;;;10.88;100.00;99627.81;4982538;28;20073;-84
2021/10/31 06:22:38;;;;;;;23.38;12.82;;;9.80;99.90;;;10.85;100.00;99630.56;4980813;28;20031;-83
2021/10/31 06:25:07;;;;;;;22.75;13.68;;;9.70;99.90;;;10.80;100.00;99626.13;4981579;28;20030;-84
2021/10/31 06:27:33;;;;;;;24.90;14.18;;;9.70;99.90;;;10.81;100.00;99621.34;4982597;28;20510;-83
2021/10/31 06:30:00;;;;;;;26.60;14.07;;;9.80;99.90;;;10.87;100.00;99628.19;4979899;28;20063;-83
2021/10/31 06:32:27;;;;;;;22.27;13.52;;;9.80;99.90;;;10.90;100.00;99630.22;4981691;28;20106;-84
2021/10/31 06:34:53;;;;;;;20.52;12.10;;;9.80;99.90;;;10.98;100.00;99629.88;4981212;28;20069;-83
2021/10/31 06:37:19;;;;;;;21.50;12.60;;;9.90;99.90;;;11.00;100.00;99630.31;4984317;28;20089;-83
2021/10/31 06:39:45;;;;;;;19.67;12.32;;;9.90;99.90;;;11.05;100.00;99620.75;4982959;28;20474;-83
2021/10/31 06:42:11;;;;;;;19.80;11.85;;;9.90;99.90;;;11.05;100.00;99618.78;4983649;28;20034;-84
2021/10/31 06:44:37;;;;;;;17.80;11.50;;;10.00;99.90;;;11.13;100.00;99607.66;4983334;28;20038;-84
2021/10/31 06:47:03;;;;;;;18.50;11.48;;;10.00;99.90;;;11.18;100.00;99618.47;4985682;28;20030;-84
2021/10/31 06:49:29;;;;;;;17.23;10.27;;;10.00;99.90;;;11.20;100.00;99619.72;4983976;28;20042;-82
2021/10/31 06:51:56;;;;;;;17.75;10.07;;;10.10;99.90;;;11.18;100.00;99616.47;4984634;28;20042;-81
2021/10/31 06:54:22;;;;;;;19.42;11.00;;;10.10;99.90;;;11.30;100.00;99623.78;4984131;28;20082;-86
2021/10/31 06:56:48;;;;;;;19.30;10.20;;;10.20;99.90;;;11.38;100.00;99619.84;4984252;28;20091;-83
2021/10/31 06:59:14;;;;;;;19.80;10.15;;;10.20;99.90;;;11.42;100.00;99618.69;4984754;28;20050;-83
2021/10/31 07:01:40;;;;;;;20.60;11.23;;;10.30;99.90;;;11.45;100.00;99611.50;4985505;28;20023;-85
2021/10/31 07:04:08;;;;;;;16.23;10.02;;;10.30;99.90;;;11.47;100.00;99603.50;4984439;28;20026;-82
2021/10/31 07:06:35;;;;;;;16.88;10.05;;;10.30;99.90;;;11.55;100.00;99608.78;5000528;28;20023;-83
2021/10/31 07:09:02;;;;;;;17.08;10.70;;;10.30;99.90;;;11.55;100.00;99596.78;4958827;29;20071;-82
2021/10/31 07:11:28;;;;;;;17.58;10.38;;;10.40;99.90;;;11.67;100.00;99592.84;4965812;29;20091;-83
2021/10/31 07:13:54;;;;;;;15.52;10.52;;;10.50;99.90;;;11.73;100.00;99594.13;4966195;28;20023;-82
2021/10/31 07:16:20;;;;;;;15.43;9.05;;;10.70;99.90;;;11.94;100.00;99602.63;4967205;29;20082;-82
2021/10/31 07:18:46;;;;;;;12.75;8.38;;;10.70;99.90;;;12.04;100.00;99610.28;4964655;28;20028;-86
2021/10/31 07:21:14;;;;;;;11.27;6.82;;;10.90;99.90;;;12.33;100.00;99608.41;4965536;29;20032;-81
2021/10/31 07:23:40;;;;;;;12.27;7.57;;;11.20;99.90;;;12.69;100.00;99588.47;4967941;29;20066;-81
2021/10/31 07:26:07;;;;;;;12.18;6.60;;;11.30;99.90;;;12.93;100.00;99586.91;4966990;28;20438;-82
2021/10/31 07:28:33;;;;;;;13.38;7.10;;;11.60;99.90;;;13.22;100.00;99575.72;4981382;28;20046;-83
2021/10/31 07:31:01;;;;;;;8.70;6.85;;;11.80;99.90;;;13.52;100.00;99567.66;4967305;28;20407;-83
2021/10/31 07:33:27;;;;;;;9.75;6.78;;;12.10;99.90;;;13.56;100.00;99574.06;4966829;28;20027;-83
2021/10/31 07:35:54;;;;;;;12.82;6.03;;;12.20;99.90;;;13.66;100.00;99567.63;4982597;28;20035;-84
2021/10/31 07:38:20;;;;;;;10.23;5.38;;;12.30;99.90;;;13.61;99.95;99568.81;4982275;28;20383;-83
2021/10/31 07:40:46;;;;;;;8.48;5.47;;;12.30;99.90;;;13.47;100.00;99560.47;4968698;29;20035;-82
2021/10/31 07:43:12;;;;;;;7.97;4.78;;;12.30;99.90;;;13.38;100.00;99562.09;4965355;28;20483;-87
2021/10/31 07:45:40;;;;;;;6.05;4.70;;;12.20;99.90;;;13.36;100.00;99562.47;4966190;29;20107;-84
2021/10/31 07:48:07;;;;;;;8.75;5.20;;;12.20;99.90;;;13.15;100.00;99571.72;4963031;28;20078;-85
2021/10/31 07:50:34;;;;;;;7.30;4.85;;;12.20;99.90;;;13.18;100.00;99554.09;4964494;28;20051;-84
2021/10/31 07:53:12;;;;;;;7.05;4.80;;;12.10;99.90;;;13.08;100.00;99552.09;4963918;29;20035;-85
2021/10/31 07:55:41;;;;;;;9.65;5.28;;;12.00;99.90;;;13.02;100.00;99561.28;4963213;28;20031;-84
2021/10/31 07:58:08;;;;;;;6.40;4.40;;;12.00;99.90;;;13.07;100.00;99550.44;4963458;29;20031;-83
2021/10/31 08:00:36;;;;;;;7.32;4.25;;;12.00;99.90;;;13.28;100.00;99555.28;4962374;28;20023;-84
2021/10/31 08:03:03;;;;;;;5.32;3.78;;;12.00;99.90;;;13.19;100.00;99547.28;4963127;28;20128;-86
2021/10/31 08:05:29;;;;;;;8.50;4.05;;;12.10;99.90;;;13.27;100.00;99553.69;4945764;28;20038;-81
2021/10/31 08:07:57;;;;;;;4.95;3.67;;;12.10;99.90;;;13.18;100.00;99551.28;4962810;28;20031;-81
2021/10/31 08:10:23;;;;;;;4.75;3.80;;;12.10;99.90;;;13.22;100.00;99544.88;4980000;28;20431;-83
2021/10/31 08:12:49;;;;;;;6.47;3.38;;;12.00;99.90;;;13.06;100.00;99534.06;4995211;28;20031;-84
2021/10/31 08:15:16;;;;;;;4.60;3.30;;;12.00;99.90;;;13.04;100.00;99526.03;4998308;28;20042;-78
2021/10/31 08:17:42;;;;;;;5.32;3.35;;;12.00;99.90;;;13.07;100.00;99528.03;4987697;28;20034;-83
2021/10/31 08:20:09;;;;;;;5.18;3.40;;;12.00;99.90;;;13.14;100.00;99530.06;4996181;28;20030;-81
2021/10/31 08:22:35;;;;;;;4.32;3.20;;;12.00;99.90;;;13.20;100.00;99534.06;4963419;28;20061;-80
2021/10/31 08:25:03;;;;;;;5.65;2.97;;;12.10;99.90;;;13.42;100.00;99530.00;4978630;28;20027;-82
2021/10/31 08:27:30;;;;;;;3.20;2.58;;;12.20;99.90;;;13.65;100.00;99532.34;4995419;28;20437;-84
2021/10/31 08:29:56;;;;;;;8.43;3.08;;;12.40;99.90;;;13.89;100.00;99541.91;4979970;28;20469;-83
2021/10/31 08:32:24;;;;;;;4.78;2.42;;;12.60;99.90;;;14.12;98.28;99530.97;4980610;28;20034;-81
2021/10/31 08:34:50;;;;;;;2.92;2.40;;;12.90;99.90;;;14.60;97.04;99525.50;4981522;28;20050;-83
2021/10/31 08:37:16;;;;;;;4.80;2.40;;;13.30;99.90;;;14.98;94.49;99520.75;4979066;28;20118;-84
2021/10/31 08:39:42;;;;;;;2.30;1.95;;;13.60;99.90;;;15.19;92.15;99518.53;4978675;28;20098;-84
2021/10/31 08:42:09;;;;;;;2.72;1.58;;;13.80;99.90;;;15.38;90.67;99525.59;4995313;28;20105;-82
2021/10/31 08:44:37;;;;;;;4.10;1.80;;;14.10;99.90;;;15.17;92.08;99523.00;4993319;28;20030;-83
2021/10/31 08:47:05;;;;;;;2.22;1.80;;;14.20;99.90;;;15.39;90.85;99512.31;4997887;28;20099;-80
2021/10/31 08:49:32;;;;;;;1.90;1.55;;;14.30;99.90;;;15.93;89.18;99516.94;4978511;28;20042;-82
2021/10/31 08:52:04;;;;;;;1.50;1.38;;;14.60;99.90;;;16.05;85.76;99507.97;4982693;28;20058;-82
2021/10/31 08:54:38;;;;;;;2.40;1.58;;;14.80;99.90;;;15.92;87.35;99508.94;4981171;28;20431;-80
2021/10/31 08:57:06;;;;;;;1.77;1.13;;;14.80;99.90;;;15.83;86.46;99503.81;4978669;28;20027;-86
2021/10/31 08:59:35;;;;;;;2.25;1.10;;;14.80;99.90;;;15.69;87.60;99489.91;4979397;28;20031;-84
2021/10/31 09:02:03;;;;;;;3.72;1.17;;;14.70;99.90;;;15.53;88.63;99498.16;4981897;28;20125;-82
2021/10/31 09:04:30;;;;;;;1.92;1.33;;;14.60;99.90;;;15.63;88.14;99491.59;4979309;28;20019;-81
2021/10/31 09:06:56;;;;;;;1.30;0.68;;;14.70;99.90;;;16.26;86.12;99496.41;4976441;28;20346;-82
2021/10/31 09:09:24;;;;;;;2.55;1.00;;;14.80;99.90;;;16.30;84.51;99490.72;4995020;28;20081;-84
2021/10/31 09:11:50;;;;;;;2.90;1.15;;;14.90;99.90;;;16.82;83.57;99493.97;4981817;28;20026;-84
2021/10/31 09:14:16;;;;;;;1.52;1.00;;;15.20;99.90;;;16.56;83.78;99487.13;4995314;28;20110;-82
2021/10/31 09:16:43;;;;;;;3.08;1.15;;;15.20;99.90;;;16.61;82.55;99495.09;4979664;28;20354;-84
2021/10/31 09:19:10;;;;;;;2.17;0.73;;;15.20;99.90;;;16.86;82.33;99492.66;4979130;28;20023;-84
2021/10/31 09:21:36;;;;;;;4.72;1.08;;;15.20;99.90;;;16.17;84.64;99486.88;4977026;28;20035;-85
2021/10/31 09:24:02;;;;;;;0.80;0.80;;;15.20;99.90;;;16.12;84.97;99484.50;4975653;28;20389;-84
2021/10/31 09:26:29;;;;;;;2.15;1.00;;;15.20;99.90;;;16.19;86.87;99481.59;4975341;28;20406;-85
2021/10/31 09:28:56;;;;;;;3.95;0.90;;;15.10;99.90;;;16.28;85.40;99473.41;4975283;28;20042;-81
2021/10/31 09:31:23;;;;;;;1.33;0.98;;;15.20;99.90;;;16.90;83.02;99481.31;4976639;28;20050;-82
2021/10/31 09:33:49;;;;;;;2.33;1.83;;;15.20;99.90;;;16.69;83.42;99471.22;4976512;28;20038;-81
2021/10/31 09:36:15;;;;;;;1.80;0.90;;;15.20;99.90;;;16.44;84.14;99469.97;4974738;28;20561;-82
2021/10/31 09:38:41;;;;;;;2.42;1.13;;;15.20;99.90;;;16.17;86.84;99459.50;4990799;28;20039;-84
2021/10/31 09:41:07;;;;;;;3.35;1.00;;;15.20;99.90;;;16.07;86.59;99449.19;4976881;28;20110;-82
2021/10/31 09:43:46;;;;;;;1.33;0.82;;;15.20;99.90;;;16.14;86.45;99442.66;4976078;28;20168;-82
2021/10/31 09:46:12;;;;;;;3.20;0.90;;;15.10;99.90;;;16.20;86.05;99435.31;4991431;28;20490;-82
2021/10/31 09:48:37;;;;;;;1.75;0.82;;;15.20;99.90;;;16.01;86.47;99434.00;4990560;28;20026;-82
2021/10/31 09:51:05;;;;;;;2.63;1.05;;;15.20;99.90;;;16.11;87.43;99429.44;4976014;28;20026;-82
2021/10/31 09:53:31;;;;;;;1.98;1.10;;;15.10;99.90;;;16.16;86.42;99423.31;4990620;28;20023;-80
2021/10/31 09:55:58;;;;;;;5.18;1.33;;;15.20;99.90;;;16.48;86.14;99417.16;4973700;28;20038;-82
2021/10/31 09:58:35;;;;;;;3.40;1.10;;;15.30;99.90;;;16.97;83.79;99413.53;4993400;28;20038;-81
2021/10/31 10:01:57;;;;;;;2.88;1.25;;;15.70;99.90;;;17.10;84.00;99413.69;4960490;28;20069;-82
2021/10/31 10:04:34;;;;;;;2.00;1.30;;;16.00;99.90;;;17.08;83.04;99413.34;4993471;28;20046;-80
2021/10/31 10:07:05;;;;;;;3.97;1.60;;;16.00;99.90;;;17.45;82.88;99409.34;4992867;28;20027;-81
2021/10/31 10:09:34;;;;;;;4.55;1.70;;;16.30;99.90;;;18.04;78.91;99415.78;4974478;28;20027;-84
2021/10/31 10:12:15;;;;;;;3.17;1.80;;;16.80;99.90;;;18.41;77.65;99425.78;4962520;29;20062;-82
2021/10/31 10:14:54;;;;;;;3.17;1.60;;;17.20;99.90;;;18.26;78.49;99413.25;4955198;29;20031;-82
2021/10/31 10:17:20;;;;;;;2.63;1.65;;;17.30;99.90;;;18.48;76.02;99422.81;4956189;28;20129;-81
2021/10/31 10:19:55;;;;;;;4.47;1.40;;;17.40;99.90;;;18.36;78.45;99423.50;4956585;29;20114;-82
2021/10/31 10:22:26;;;;;;;2.90;1.92;;;17.30;99.90;;;18.44;76.32;99405.94;4957861;29;20086;-85